sensor_id;sensor_type;location;lat;lon;timestamp;temperature;humidity
4411;DHT22;2218;51.408;7.208;2023-03-14T00:01:14;17.90;44.80
4411;DHT22;2218;51.408;7.208;2023-03-14T00:03:43;17.90;44.20
4411;DHT22;2218;51.408;7.208;2023-03-14T00:06:11;17.90;44.20
4411;DHT22;2218;51.408;7.208;2023-03-14T00:08:41;17.90;44.20
4411;DHT22;2218;51.408;7.208;2023-03-14T00:11:11;17.90;44.20
4411;DHT22;2218;51.408;7.208;2023-03-14T00:13:41;17.90;44.20
4411;DHT22;2218;51.408;7.208;2023-03-14T00:16:10;17.90;44.20
4411;DHT22;2218;51.408;7.208;2023-03-14T00:18:39;17.90;44.20
4411;DHT22;2218;51.408;7.208;2023-03-14T00:21:08;17.90;44.10
4411;DHT22;2218;51.408;7.208;2023-03-14T00:23:38;17.90;44.10
4411;DHT22;2218;51.408;7.208;2023-03-14T00:26:09;17.90;44.10
4411;DHT22;2218;51.408;7.208;2023-03-14T00:28:39;17.90;44.10
4411;DHT22;2218;51.408;7.208;2023-03-14T00:31:10;17.90;44.10
4411;DHT22;2218;51.408;7.208;2023-03-14T00:33:40;17.90;44.10
4411;DHT22;2218;51.408;7.208;2023-03-14T00:36:10;17.90;44.00
4411;DHT22;2218;51.408;7.208;2023-03-14T00:38:40;17.90;44.10
4411;DHT22;2218;51.408;7.208;2023-03-14T00:41:11;17.90;44.10
4411;DHT22;2218;51.408;7.208;2023-03-14T00:43:40;17.90;44.00
4411;DHT22;2218;51.408;7.208;2023-03-14T00:46:07;17.90;44.00
4411;DHT22;2218;51.408;7.208;2023-03-14T00:48:35;17.90;44.00
4411;DHT22;2218;51.408;7.208;2023-03-14T00:51:03;17.90;44.00
4411;DHT22;2218;51.408;7.208;2023-03-14T00:53:32;17.90;44.00
4411;DHT22;2218;51.408;7.208;2023-03-14T00:56:03;17.90;44.00
4411;DHT22;2218;51.408;7.208;2023-03-14T00:58:32;17.90;44.00
4411;DHT22;2218;51.408;7.208;2023-03-14T01:00:59;17.90;44.00
4411;DHT22;2218;51.408;7.208;2023-03-14T01:03:26;17.90;43.90
4411;DHT22;2218;51.408;7.208;2023-03-14T01:05:53;17.90;43.90
4411;DHT22;2218;51.408;7.208;2023-03-14T01:08:20;17.90;43.90
4411;DHT22;2218;51.408;7.208;2023-03-14T01:10:47;17.90;43.90
4411;DHT22;2218;51.408;7.208;2023-03-14T01:13:14;17.90;43.90
4411;DHT22;2218;51.408;7.208;2023-03-14T01:15:42;17.90;43.90
4411;DHT22;2218;51.408;7.208;2023-03-14T01:18:10;17.90;43.90
4411;DHT22;2218;51.408;7.208;2023-03-14T01:20:37;17.90;43.80
4411;DHT22;2218;51.408;7.208;2023-03-14T01:23:04;17.90;43.90
4411;DHT22;2218;51.408;7.208;2023-03-14T01:25:31;17.90;43.80
4411;DHT22;2218;51.408;7.208;2023-03-14T01:27:58;17.90;43.80
4411;DHT22;2218;51.408;7.208;2023-03-14T01:30:27;17.90;44.30
4411;DHT22;2218;51.408;7.208;2023-03-14T01:32:55;17.90;43.90
4411;DHT22;2218;51.408;7.208;2023-03-14T01:35:22;17.90;43.90
4411;DHT22;2218;51.408;7.208;2023-03-14T01:37:50;17.90;43.90
4411;DHT22;2218;51.408;7.208;2023-03-14T01:40:20;17.90;43.90
4411;DHT22;2218;51.408;7.208;2023-03-14T01:42:55;17.90;43.90
4411;DHT22;2218;51.408;7.208;2023-03-14T01:48:50;17.90;43.90
4411;DHT22;2218;51.408;7.208;2023-03-14T01:51:26;17.80;43.90
4411;DHT22;2218;51.408;7.208;2023-03-14T01:54:04;17.90;43.90
4411;DHT22;2218;51.408;7.208;2023-03-14T01:56:37;17.80;43.90
4411;DHT22;2218;51.408;7.208;2023-03-14T01:59:08;17.80;43.90
4411;DHT22;2218;51.408;7.208;2023-03-14T02:01:39;17.80;43.90
4411;DHT22;2218;51.408;7.208;2023-03-14T02:04:11;17.80;43.90
4411;DHT22;2218;51.408;7.208;2023-03-14T02:06:47;17.90;44.00
4411;DHT22;2218;51.408;7.208;2023-03-14T02:09:19;17.80;44.00
4411;DHT22;2218;51.408;7.208;2023-03-14T02:11:46;17.80;44.00
4411;DHT22;2218;51.408;7.208;2023-03-14T02:14:39;17.80;44.00
4411;DHT22;2218;51.408;7.208;2023-03-14T02:17:24;17.80;44.00
4411;DHT22;2218;51.408;7.208;2023-03-14T02:20:28;17.80;44.00
4411;DHT22;2218;51.408;7.208;2023-03-14T02:23:01;17.80;44.50
4411;DHT22;2218;51.408;7.208;2023-03-14T02:25:38;17.80;44.00
4411;DHT22;2218;51.408;7.208;2023-03-14T02:28:11;17.80;44.10
4411;DHT22;2218;51.408;7.208;2023-03-14T02:30:40;17.80;44.10
4411;DHT22;2218;51.408;7.208;2023-03-14T02:33:10;17.80;44.10
4411;DHT22;2218;51.408;7.208;2023-03-14T02:35:45;17.80;44.10
4411;DHT22;2218;51.408;7.208;2023-03-14T02:38:20;17.80;44.10
4411;DHT22;2218;51.408;7.208;2023-03-14T02:40:52;17.80;44.10
4411;DHT22;2218;51.408;7.208;2023-03-14T02:43:21;17.80;44.10
4411;DHT22;2218;51.408;7.208;2023-03-14T02:45:55;17.80;44.10
4411;DHT22;2218;51.408;7.208;2023-03-14T02:48:25;17.80;44.10
4411;DHT22;2218;51.408;7.208;2023-03-14T02:50:56;17.80;44.10
4411;DHT22;2218;51.408;7.208;2023-03-14T02:53:29;17.80;44.10
4411;DHT22;2218;51.408;7.208;2023-03-14T02:56:01;17.80;44.10
4411;DHT22;2218;51.408;7.208;2023-03-14T02:58:32;17.80;44.10
4411;DHT22;2218;51.408;7.208;2023-03-14T03:01:17;17.80;44.10
4411;DHT22;2218;51.408;7.208;2023-03-14T03:03:44;17.80;44.10
4411;DHT22;2218;51.408;7.208;2023-03-14T03:06:11;17.80;44.10
4411;DHT22;2218;51.408;7.208;2023-03-14T03:08:38;17.80;44.10
4411;DHT22;2218;51.408;7.208;2023-03-14T03:11:06;17.80;44.10
4411;DHT22;2218;51.408;7.208;2023-03-14T03:13:35;17.70;44.00
4411;DHT22;2218;51.408;7.208;2023-03-14T03:16:04;17.70;44.10
4411;DHT22;2218;51.408;7.208;2023-03-14T03:18:33;17.70;44.10
4411;DHT22;2218;51.408;7.208;2023-03-14T03:21:01;17.70;44.00
4411;DHT22;2218;51.408;7.208;2023-03-14T03:23:29;17.70;44.10
4411;DHT22;2218;51.408;7.208;2023-03-14T03:25:57;17.70;44.10
4411;DHT22;2218;51.408;7.208;2023-03-14T03:28:24;17.70;44.10
4411;DHT22;2218;51.408;7.208;2023-03-14T03:30:53;17.70;44.00
4411;DHT22;2218;51.408;7.208;2023-03-14T03:33:20;17.70;44.00
4411;DHT22;2218;51.408;7.208;2023-03-14T03:35:49;17.70;44.00
4411;DHT22;2218;51.408;7.208;2023-03-14T03:38:23;17.70;44.00
4411;DHT22;2218;51.408;7.208;2023-03-14T03:40:52;17.70;44.00
4411;DHT22;2218;51.408;7.208;2023-03-14T03:43:22;17.70;44.00
4411;DHT22;2218;51.408;7.208;2023-03-14T03:45:50;17.70;44.00
4411;DHT22;2218;51.408;7.208;2023-03-14T03:48:19;17.70;44.00
4411;DHT22;2218;51.408;7.208;2023-03-14T03:50:46;17.70;44.00
4411;DHT22;2218;51.408;7.208;2023-03-14T03:53:17;17.70;44.00
4411;DHT22;2218;51.408;7.208;2023-03-14T03:55:44;17.80;44.10
4411;DHT22;2218;51.408;7.208;2023-03-14T03:58:11;17.80;44.10
4411;DHT22;2218;51.408;7.208;2023-03-14T04:00:39;17.80;44.10
4411;DHT22;2218;51.408;7.208;2023-03-14T04:03:06;17.80;44.10
4411;DHT22;2218;51.408;7.208;2023-03-14T04:05:34;17.80;44.10
4411;DHT22;2218;51.408;7.208;2023-03-14T04:08:07;17.80;44.10
4411;DHT22;2218;51.408;7.208;2023-03-14T04:10:34;17.80;44.10
4411;DHT22;2218;51.408;7.208;2023-03-14T04:13:11;17.80;44.10
4411;DHT22;2218;51.408;7.208;2023-03-14T04:15:40;17.80;44.00
4411;DHT22;2218;51.408;7.208;2023-03-14T04:18:17;17.80;44.10
4411;DHT22;2218;51.408;7.208;2023-03-14T04:20:46;17.80;44.00
4411;DHT22;2218;51.408;7.208;2023-03-14T04:23:18;17.80;44.10
4411;DHT22;2218;51.408;7.208;2023-03-14T04:25:48;17.80;44.00
4411;DHT22;2218;51.408;7.208;2023-03-14T04:28:16;17.80;44.10
4411;DHT22;2218;51.408;7.208;2023-03-14T04:30:43;17.80;44.10
4411;DHT22;2218;51.408;7.208;2023-03-14T04:33:14;17.80;44.10
4411;DHT22;2218;51.408;7.208;2023-03-14T04:35:49;17.80;44.10
4411;DHT22;2218;51.408;7.208;2023-03-14T04:38:19;17.80;44.10
4411;DHT22;2218;51.408;7.208;2023-03-14T04:40:47;17.80;44.10
4411;DHT22;2218;51.408;7.208;2023-03-14T04:43:16;17.80;44.10
4411;DHT22;2218;51.408;7.208;2023-03-14T04:45:50;17.80;44.10
4411;DHT22;2218;51.408;7.208;2023-03-14T04:48:18;17.80;44.10
4411;DHT22;2218;51.408;7.208;2023-03-14T04:50:46;17.80;44.10
4411;DHT22;2218;51.408;7.208;2023-03-14T04:53:15;17.80;44.10
4411;DHT22;2218;51.408;7.208;2023-03-14T04:55:47;17.80;44.10
4411;DHT22;2218;51.408;7.208;2023-03-14T04:58:16;17.80;44.10
4411;DHT22;2218;51.408;7.208;2023-03-14T05:00:44;17.80;44.10
4411;DHT22;2218;51.408;7.208;2023-03-14T05:03:29;17.80;44.10
4411;DHT22;2218;51.408;7.208;2023-03-14T05:06:25;17.80;44.10
4411;DHT22;2218;51.408;7.208;2023-03-14T05:09:11;17.80;44.10
4411;DHT22;2218;51.408;7.208;2023-03-14T05:11:38;17.70;44.00
4411;DHT22;2218;51.408;7.208;2023-03-14T05:14:14;17.80;44.10
4411;DHT22;2218;51.408;7.208;2023-03-14T05:17:05;17.80;44.10
4411;DHT22;2218;51.408;7.208;2023-03-14T05:19:43;17.80;44.10
4411;DHT22;2218;51.408;7.208;2023-03-14T05:22:22;17.80;44.10
4411;DHT22;2218;51.408;7.208;2023-03-14T05:25:04;17.80;44.10
4411;DHT22;2218;51.408;7.208;2023-03-14T05:27:31;17.80;44.10
4411;DHT22;2218;51.408;7.208;2023-03-14T05:30:08;17.80;44.10
4411;DHT22;2218;51.408;7.208;2023-03-14T05:32:52;17.80;44.20
4411;DHT22;2218;51.408;7.208;2023-03-14T05:35:37;17.80;44.20
4411;DHT22;2218;51.408;7.208;2023-03-14T05:38:04;17.80;44.20
4411;DHT22;2218;51.408;7.208;2023-03-14T05:40:51;17.80;44.10
4411;DHT22;2218;51.408;7.208;2023-03-14T05:43:37;17.80;44.10
4411;DHT22;2218;51.408;7.208;2023-03-14T05:46:30;17.80;44.10
4411;DHT22;2218;51.408;7.208;2023-03-14T05:49:09;17.80;44.20
4411;DHT22;2218;51.408;7.208;2023-03-14T05:52:09;17.80;44.10
4411;DHT22;2218;51.408;7.208;2023-03-14T05:55:02;17.80;44.20
4411;DHT22;2218;51.408;7.208;2023-03-14T05:57:52;17.80;44.20
4411;DHT22;2218;51.408;7.208;2023-03-14T06:00:50;17.80;44.20
4411;DHT22;2218;51.408;7.208;2023-03-14T06:03:34;17.80;44.20
4411;DHT22;2218;51.408;7.208;2023-03-14T06:06:01;17.80;44.30
4411;DHT22;2218;51.408;7.208;2023-03-14T06:08:28;17.80;44.30
4411;DHT22;2218;51.408;7.208;2023-03-14T06:10:57;17.80;44.30
4411;DHT22;2218;51.408;7.208;2023-03-14T06:13:30;17.80;44.20
4411;DHT22;2218;51.408;7.208;2023-03-14T06:15:57;17.80;44.30
4411;DHT22;2218;51.408;7.208;2023-03-14T06:18:24;17.80;44.30
4411;DHT22;2218;51.408;7.208;2023-03-14T06:20:53;17.80;44.30
4411;DHT22;2218;51.408;7.208;2023-03-14T06:23:24;17.80;44.30
4411;DHT22;2218;51.408;7.208;2023-03-14T06:25:52;17.80;44.30
4411;DHT22;2218;51.408;7.208;2023-03-14T06:28:21;17.80;44.30
4411;DHT22;2218;51.408;7.208;2023-03-14T06:30:50;17.80;44.30
4411;DHT22;2218;51.408;7.208;2023-03-14T06:33:17;17.80;44.30
4411;DHT22;2218;51.408;7.208;2023-03-14T06:35:44;17.80;44.30
4411;DHT22;2218;51.408;7.208;2023-03-14T06:38:11;17.80;44.30
4411;DHT22;2218;51.408;7.208;2023-03-14T06:40:38;17.80;44.30
4411;DHT22;2218;51.408;7.208;2023-03-14T06:43:10;17.80;44.30
4411;DHT22;2218;51.408;7.208;2023-03-14T06:45:40;17.80;44.40
4411;DHT22;2218;51.408;7.208;2023-03-14T06:48:08;17.80;44.30
4411;DHT22;2218;51.408;7.208;2023-03-14T06:50:49;17.80;44.30
4411;DHT22;2218;51.408;7.208;2023-03-14T06:53:16;17.80;44.60
4411;DHT22;2218;51.408;7.208;2023-03-14T06:55:44;17.90;44.70
4411;DHT22;2218;51.408;7.208;2023-03-14T06:58:13;17.90;44.70
4411;DHT22;2218;51.408;7.208;2023-03-14T07:00:44;18.00;44.90
4411;DHT22;2218;51.408;7.208;2023-03-14T07:03:16;18.10;45.00
4411;DHT22;2218;51.408;7.208;2023-03-14T07:05:47;18.20;44.90
4411;DHT22;2218;51.408;7.208;2023-03-14T07:08:15;18.30;44.80
4411;DHT22;2218;51.408;7.208;2023-03-14T07:10:42;18.50;44.80
4411;DHT22;2218;51.408;7.208;2023-03-14T07:13:09;18.60;44.90
4411;DHT22;2218;51.408;7.208;2023-03-14T07:15:47;18.70;44.80
4411;DHT22;2218;51.408;7.208;2023-03-14T07:18:16;18.80;44.90
4411;DHT22;2218;51.408;7.208;2023-03-14T07:20:45;18.80;44.80
4411;DHT22;2218;51.408;7.208;2023-03-14T07:23:13;18.90;44.90
4411;DHT22;2218;51.408;7.208;2023-03-14T07:25:46;18.90;44.70
4411;DHT22;2218;51.408;7.208;2023-03-14T07:28:14;19.00;44.80
4411;DHT22;2218;51.408;7.208;2023-03-14T07:30:43;19.00;44.80
4411;DHT22;2218;51.408;7.208;2023-03-14T07:33:18;19.00;44.70
4411;DHT22;2218;51.408;7.208;2023-03-14T07:35:46;19.10;44.70
4411;DHT22;2218;51.408;7.208;2023-03-14T07:38:14;19.10;44.60
4411;DHT22;2218;51.408;7.208;2023-03-14T07:41:00;19.10;44.50
4411;DHT22;2218;51.408;7.208;2023-03-14T07:43:29;19.10;44.60
4411;DHT22;2218;51.408;7.208;2023-03-14T07:45:59;19.20;44.70
4411;DHT22;2218;51.408;7.208;2023-03-14T07:48:28;19.20;44.70
4411;DHT22;2218;51.408;7.208;2023-03-14T07:50:55;19.20;44.80
4411;DHT22;2218;51.408;7.208;2023-03-14T07:53:23;19.30;44.80
4411;DHT22;2218;51.408;7.208;2023-03-14T07:55:50;19.30;44.90
4411;DHT22;2218;51.408;7.208;2023-03-14T07:58:18;19.30;44.80
4411;DHT22;2218;51.408;7.208;2023-03-14T08:00:47;19.30;44.70
4411;DHT22;2218;51.408;7.208;2023-03-14T08:03:14;19.30;44.70
4411;DHT22;2218;51.408;7.208;2023-03-14T08:05:43;19.30;44.60
4411;DHT22;2218;51.408;7.208;2023-03-14T08:08:13;19.30;44.50
4411;DHT22;2218;51.408;7.208;2023-03-14T08:10:40;19.30;44.50
4411;DHT22;2218;51.408;7.208;2023-03-14T08:13:07;19.30;44.40
4411;DHT22;2218;51.408;7.208;2023-03-14T08:15:35;19.30;44.40
4411;DHT22;2218;51.408;7.208;2023-03-14T08:18:03;19.30;44.40
4411;DHT22;2218;51.408;7.208;2023-03-14T08:20:31;19.40;44.40
4411;DHT22;2218;51.408;7.208;2023-03-14T08:23:01;19.40;44.40
4411;DHT22;2218;51.408;7.208;2023-03-14T08:25:28;19.40;44.40
4411;DHT22;2218;51.408;7.208;2023-03-14T08:27:55;19.40;44.40
4411;DHT22;2218;51.408;7.208;2023-03-14T08:30:23;19.40;44.40
4411;DHT22;2218;51.408;7.208;2023-03-14T08:32:50;19.40;44.30
4411;DHT22;2218;51.408;7.208;2023-03-14T08:35:17;19.40;44.30
4411;DHT22;2218;51.408;7.208;2023-03-14T08:37:44;19.50;44.40
4411;DHT22;2218;51.408;7.208;2023-03-14T08:40:14;19.50;44.30
4411;DHT22;2218;51.408;7.208;2023-03-14T08:42:42;19.50;44.30
4411;DHT22;2218;51.408;7.208;2023-03-14T08:45:11;19.50;44.30
4411;DHT22;2218;51.408;7.208;2023-03-14T08:47:41;19.50;44.30
4411;DHT22;2218;51.408;7.208;2023-03-14T08:50:10;19.50;44.20
4411;DHT22;2218;51.408;7.208;2023-03-14T08:52:37;19.50;44.20
4411;DHT22;2218;51.408;7.208;2023-03-14T08:55:07;19.60;44.30
4411;DHT22;2218;51.408;7.208;2023-03-14T08:57:36;19.60;44.20
4411;DHT22;2218;51.408;7.208;2023-03-14T09:00:04;19.60;44.30
4411;DHT22;2218;51.408;7.208;2023-03-14T09:02:36;19.70;44.30
4411;DHT22;2218;51.408;7.208;2023-03-14T09:05:03;19.70;44.30
4411;DHT22;2218;51.408;7.208;2023-03-14T09:07:31;19.70;44.30
4411;DHT22;2218;51.408;7.208;2023-03-14T09:09:58;19.70;44.30
4411;DHT22;2218;51.408;7.208;2023-03-14T09:12:24;19.80;44.40
4411;DHT22;2218;51.408;7.208;2023-03-14T09:14:53;19.70;44.30
4411;DHT22;2218;51.408;7.208;2023-03-14T09:17:20;19.80;44.30
4411;DHT22;2218;51.408;7.208;2023-03-14T09:19:47;19.80;44.40
4411;DHT22;2218;51.408;7.208;2023-03-14T09:22:14;19.80;44.40
4411;DHT22;2218;51.408;7.208;2023-03-14T09:24:41;19.80;44.40
4411;DHT22;2218;51.408;7.208;2023-03-14T09:27:08;19.80;44.40
4411;DHT22;2218;51.408;7.208;2023-03-14T09:29:35;19.80;44.40
4411;DHT22;2218;51.408;7.208;2023-03-14T09:32:04;19.80;44.40
4411;DHT22;2218;51.408;7.208;2023-03-14T09:34:34;19.80;44.30
4411;DHT22;2218;51.408;7.208;2023-03-14T09:37:00;19.80;44.40
4411;DHT22;2218;51.408;7.208;2023-03-14T09:39:27;19.90;44.50
4411;DHT22;2218;51.408;7.208;2023-03-14T09:41:56;19.90;44.50
4411;DHT22;2218;51.408;7.208;2023-03-14T09:44:29;19.90;44.50
4411;DHT22;2218;51.408;7.208;2023-03-14T09:47:02;19.90;44.50
4411;DHT22;2218;51.408;7.208;2023-03-14T09:49:34;19.90;44.50
4411;DHT22;2218;51.408;7.208;2023-03-14T09:52:10;19.90;44.50
4411;DHT22;2218;51.408;7.208;2023-03-14T09:54:43;19.90;44.50
4411;DHT22;2218;51.408;7.208;2023-03-14T09:57:16;19.90;44.50
4411;DHT22;2218;51.408;7.208;2023-03-14T09:59:46;19.90;44.50
4411;DHT22;2218;51.408;7.208;2023-03-14T10:02:18;19.90;44.50
4411;DHT22;2218;51.408;7.208;2023-03-14T10:04:47;19.90;44.50
4411;DHT22;2218;51.408;7.208;2023-03-14T10:07:18;19.90;44.50
4411;DHT22;2218;51.408;7.208;2023-03-14T10:09:50;19.90;44.40
4411;DHT22;2218;51.408;7.208;2023-03-14T10:12:18;20.00;44.40
4411;DHT22;2218;51.408;7.208;2023-03-14T10:14:48;20.00;44.40
4411;DHT22;2218;51.408;7.208;2023-03-14T10:17:19;20.00;44.40
4411;DHT22;2218;51.408;7.208;2023-03-14T10:19:54;20.00;44.30
4411;DHT22;2218;51.408;7.208;2023-03-14T10:22:24;20.00;44.30
4411;DHT22;2218;51.408;7.208;2023-03-14T10:24:56;20.00;44.30
4411;DHT22;2218;51.408;7.208;2023-03-14T10:27:31;20.00;44.30
4411;DHT22;2218;51.408;7.208;2023-03-14T10:30:02;20.00;44.20
4411;DHT22;2218;51.408;7.208;2023-03-14T10:32:35;20.00;44.20
4411;DHT22;2218;51.408;7.208;2023-03-14T10:35:18;20.00;44.10
4411;DHT22;2218;51.408;7.208;2023-03-14T10:37:54;20.00;44.10
4411;DHT22;2218;51.408;7.208;2023-03-14T10:40:27;20.00;44.10
4411;DHT22;2218;51.408;7.208;2023-03-14T10:42:58;20.00;44.00
4411;DHT22;2218;51.408;7.208;2023-03-14T10:45:32;20.00;43.80
4411;DHT22;2218;51.408;7.208;2023-03-14T10:48:19;20.10;43.50
4411;DHT22;2218;51.408;7.208;2023-03-14T10:50:49;20.10;43.40
4411;DHT22;2218;51.408;7.208;2023-03-14T10:53:22;20.10;43.50
4411;DHT22;2218;51.408;7.208;2023-03-14T10:55:49;20.10;43.40
4411;DHT22;2218;51.408;7.208;2023-03-14T10:58:22;20.10;43.30
4411;DHT22;2218;51.408;7.208;2023-03-14T11:01:07;20.20;43.10
4411;DHT22;2218;51.408;7.208;2023-03-14T11:03:47;20.10;42.80
4411;DHT22;2218;51.408;7.208;2023-03-14T11:06:24;20.10;39.90
4411;DHT22;2218;51.408;7.208;2023-03-14T11:09:02;20.10;39.60
4411;DHT22;2218;51.408;7.208;2023-03-14T11:11:39;20.10;39.10
4411;DHT22;2218;51.408;7.208;2023-03-14T11:14:18;20.10;38.70
4411;DHT22;2218;51.408;7.208;2023-03-14T11:16:54;20.10;38.50
4411;DHT22;2218;51.408;7.208;2023-03-14T11:19:38;20.10;39.00
4411;DHT22;2218;51.408;7.208;2023-03-14T11:22:20;20.10;41.50
4411;DHT22;2218;51.408;7.208;2023-03-14T11:25:04;20.10;41.40
4411;DHT22;2218;51.408;7.208;2023-03-14T11:27:42;20.10;41.40
4411;DHT22;2218;51.408;7.208;2023-03-14T11:30:19;20.10;41.40
4411;DHT22;2218;51.408;7.208;2023-03-14T11:32:57;20.10;41.30
4411;DHT22;2218;51.408;7.208;2023-03-14T11:35:34;20.10;40.80
4411;DHT22;2218;51.408;7.208;2023-03-14T11:38:16;20.10;40.60
4411;DHT22;2218;51.408;7.208;2023-03-14T11:40:52;20.00;40.60
4411;DHT22;2218;51.408;7.208;2023-03-14T11:43:26;20.00;40.60
4411;DHT22;2218;51.408;7.208;2023-03-14T11:46:01;20.00;40.70
4411;DHT22;2218;51.408;7.208;2023-03-14T11:48:38;20.10;41.00
4411;DHT22;2218;51.408;7.208;2023-03-14T11:51:16;20.00;40.80
4411;DHT22;2218;51.408;7.208;2023-03-14T11:53:55;20.00;40.80
4411;DHT22;2218;51.408;7.208;2023-03-14T11:56:33;20.00;40.90
4411;DHT22;2218;51.408;7.208;2023-03-14T11:59:07;20.00;40.80
4411;DHT22;2218;51.408;7.208;2023-03-14T12:01:50;20.00;40.70
4411;DHT22;2218;51.408;7.208;2023-03-14T12:04:31;20.00;40.60
4411;DHT22;2218;51.408;7.208;2023-03-14T12:07:12;20.00;40.60
4411;DHT22;2218;51.408;7.208;2023-03-14T12:09:45;20.00;40.50
4411;DHT22;2218;51.408;7.208;2023-03-14T12:12:18;20.00;40.30
4411;DHT22;2218;51.408;7.208;2023-03-14T12:14:53;20.00;40.20
4411;DHT22;2218;51.408;7.208;2023-03-14T12:17:25;20.00;40.00
4411;DHT22;2218;51.408;7.208;2023-03-14T12:20:02;20.00;40.20
4411;DHT22;2218;51.408;7.208;2023-03-14T12:22:35;20.00;39.90
4411;DHT22;2218;51.408;7.208;2023-03-14T12:25:15;20.00;39.80
4411;DHT22;2218;51.408;7.208;2023-03-14T12:27:48;20.00;39.80
4411;DHT22;2218;51.408;7.208;2023-03-14T12:30:30;20.00;39.80
4411;DHT22;2218;51.408;7.208;2023-03-14T12:33:31;20.00;39.50
4411;DHT22;2218;51.408;7.208;2023-03-14T12:36:03;20.00;39.50
4411;DHT22;2218;51.408;7.208;2023-03-14T12:38:59;20.00;39.40
4411;DHT22;2218;51.408;7.208;2023-03-14T12:41:38;20.10;39.60
4411;DHT22;2218;51.408;7.208;2023-03-14T12:44:44;20.10;38.90
4411;DHT22;2218;51.408;7.208;2023-03-14T12:47:56;20.10;39.50
4411;DHT22;2218;51.408;7.208;2023-03-14T12:50:45;20.10;39.30
4411;DHT22;2218;51.408;7.208;2023-03-14T12:56:42;20.10;39.10
4411;DHT22;2218;51.408;7.208;2023-03-14T12:59:30;20.10;38.80
4411;DHT22;2218;51.408;7.208;2023-03-14T13:02:02;20.10;38.00
4411;DHT22;2218;51.408;7.208;2023-03-14T13:04:47;20.20;38.00
4411;DHT22;2218;51.408;7.208;2023-03-14T13:07:32;20.20;37.90
4411;DHT22;2218;51.408;7.208;2023-03-14T13:10:04;20.20;37.80
4411;DHT22;2218;51.408;7.208;2023-03-14T13:12:48;20.30;38.00
4411;DHT22;2218;51.408;7.208;2023-03-14T13:15:23;20.30;37.90
4411;DHT22;2218;51.408;7.208;2023-03-14T13:18:01;20.30;37.90
4411;DHT22;2218;51.408;7.208;2023-03-14T13:20:34;20.30;37.90
4411;DHT22;2218;51.408;7.208;2023-03-14T13:23:04;20.30;37.90
4411;DHT22;2218;51.408;7.208;2023-03-14T13:25:35;20.30;37.80
4411;DHT22;2218;51.408;7.208;2023-03-14T13:28:03;20.30;37.60
4411;DHT22;2218;51.408;7.208;2023-03-14T13:30:39;20.30;37.80
4411;DHT22;2218;51.408;7.208;2023-03-14T13:33:12;20.40;37.90
4411;DHT22;2218;51.408;7.208;2023-03-14T13:35:43;20.40;37.90
4411;DHT22;2218;51.408;7.208;2023-03-14T13:38:19;20.40;37.90
4411;DHT22;2218;51.408;7.208;2023-03-14T13:40:50;20.40;37.90
4411;DHT22;2218;51.408;7.208;2023-03-14T13:43:28;20.40;37.80
4411;DHT22;2218;51.408;7.208;2023-03-14T13:46:04;20.40;37.80
4411;DHT22;2218;51.408;7.208;2023-03-14T13:48:35;20.40;37.80
4411;DHT22;2218;51.408;7.208;2023-03-14T13:51:12;20.40;37.80
4411;DHT22;2218;51.408;7.208;2023-03-14T13:53:44;20.40;37.80
4411;DHT22;2218;51.408;7.208;2023-03-14T13:56:13;20.40;37.80
4411;DHT22;2218;51.408;7.208;2023-03-14T13:58:41;20.40;37.80
4411;DHT22;2218;51.408;7.208;2023-03-14T14:01:14;20.40;38.40
4411;DHT22;2218;51.408;7.208;2023-03-14T14:03:45;20.40;37.60
4411;DHT22;2218;51.408;7.208;2023-03-14T14:06:29;20.40;37.40
4411;DHT22;2218;51.408;7.208;2023-03-14T14:08:59;20.40;37.20
4411;DHT22;2218;51.408;7.208;2023-03-14T14:11:41;20.40;37.00
4411;DHT22;2218;51.408;7.208;2023-03-14T14:14:13;20.40;36.80
4411;DHT22;2218;51.408;7.208;2023-03-14T14:16:46;20.40;36.70
4411;DHT22;2218;51.408;7.208;2023-03-14T14:19:15;20.40;36.70
4411;DHT22;2218;51.408;7.208;2023-03-14T14:21:43;20.40;36.50
4411;DHT22;2218;51.408;7.208;2023-03-14T14:24:12;20.40;36.40
4411;DHT22;2218;51.408;7.208;2023-03-14T14:26:47;20.40;36.40
4411;DHT22;2218;51.408;7.208;2023-03-14T14:29:25;20.40;36.30
4411;DHT22;2218;51.408;7.208;2023-03-14T14:32:11;20.40;36.20
4411;DHT22;2218;51.408;7.208;2023-03-14T14:34:41;20.40;36.20
4411;DHT22;2218;51.408;7.208;2023-03-14T14:37:19;20.40;36.20
4411;DHT22;2218;51.408;7.208;2023-03-14T14:39:48;20.40;36.20
4411;DHT22;2218;51.408;7.208;2023-03-14T14:42:21;20.30;36.30
4411;DHT22;2218;51.408;7.208;2023-03-14T14:44:53;20.30;36.50
4411;DHT22;2218;51.408;7.208;2023-03-14T14:47:23;20.40;36.60
4411;DHT22;2218;51.408;7.208;2023-03-14T14:49:52;20.30;36.60
4411;DHT22;2218;51.408;7.208;2023-03-14T14:52:22;20.40;36.70
4411;DHT22;2218;51.408;7.208;2023-03-14T14:55:00;20.30;36.60
4411;DHT22;2218;51.408;7.208;2023-03-14T14:57:32;20.30;36.70
4411;DHT22;2218;51.408;7.208;2023-03-14T15:00:05;20.30;36.70
4411;DHT22;2218;51.408;7.208;2023-03-14T15:02:39;20.40;36.80
4411;DHT22;2218;51.408;7.208;2023-03-14T15:05:12;20.30;36.80
4411;DHT22;2218;51.408;7.208;2023-03-14T15:07:41;20.30;36.70
4411;DHT22;2218;51.408;7.208;2023-03-14T15:10:11;20.30;36.80
4411;DHT22;2218;51.408;7.208;2023-03-14T15:12:40;20.30;36.80
4411;DHT22;2218;51.408;7.208;2023-03-14T15:15:08;20.30;36.70
4411;DHT22;2218;51.408;7.208;2023-03-14T15:17:36;20.30;36.80
4411;DHT22;2218;51.408;7.208;2023-03-14T15:20:05;20.30;36.80
4411;DHT22;2218;51.408;7.208;2023-03-14T15:22:36;20.30;36.80
4411;DHT22;2218;51.408;7.208;2023-03-14T15:25:03;20.30;36.70
4411;DHT22;2218;51.408;7.208;2023-03-14T15:27:31;20.30;36.80
4411;DHT22;2218;51.408;7.208;2023-03-14T15:29:59;20.30;36.70
4411;DHT22;2218;51.408;7.208;2023-03-14T15:32:26;20.30;36.60
4411;DHT22;2218;51.408;7.208;2023-03-14T15:34:54;20.30;36.60
4411;DHT22;2218;51.408;7.208;2023-03-14T15:37:21;20.30;36.70
4411;DHT22;2218;51.408;7.208;2023-03-14T15:39:49;20.30;36.60
4411;DHT22;2218;51.408;7.208;2023-03-14T15:42:16;20.30;36.70
4411;DHT22;2218;51.408;7.208;2023-03-14T15:44:42;20.30;36.70
4411;DHT22;2218;51.408;7.208;2023-03-14T15:47:11;20.30;36.70
4411;DHT22;2218;51.408;7.208;2023-03-14T15:49:38;20.30;36.50
4411;DHT22;2218;51.408;7.208;2023-03-14T15:52:05;20.30;36.70
4411;DHT22;2218;51.408;7.208;2023-03-14T15:54:33;20.30;36.20
4411;DHT22;2218;51.408;7.208;2023-03-14T15:57:01;20.30;35.30
4411;DHT22;2218;51.408;7.208;2023-03-14T15:59:28;20.30;34.70
4411;DHT22;2218;51.408;7.208;2023-03-14T16:01:55;20.30;34.00
4411;DHT22;2218;51.408;7.208;2023-03-14T16:04:23;20.30;33.10
4411;DHT22;2218;51.408;7.208;2023-03-14T16:06:50;20.30;33.00
4411;DHT22;2218;51.408;7.208;2023-03-14T16:09:17;20.30;32.50
4411;DHT22;2218;51.408;7.208;2023-03-14T16:11:44;20.30;32.00
4411;DHT22;2218;51.408;7.208;2023-03-14T16:14:11;20.30;31.60
4411;DHT22;2218;51.408;7.208;2023-03-14T16:16:38;20.30;31.40
4411;DHT22;2218;51.408;7.208;2023-03-14T16:19:06;20.30;31.10
4411;DHT22;2218;51.408;7.208;2023-03-14T16:21:34;20.30;30.80
4411;DHT22;2218;51.408;7.208;2023-03-14T16:24:04;20.30;30.20
4411;DHT22;2218;51.408;7.208;2023-03-14T16:26:31;20.30;29.70
4411;DHT22;2218;51.408;7.208;2023-03-14T16:28:59;20.30;30.00
4411;DHT22;2218;51.408;7.208;2023-03-14T16:31:26;20.30;30.00
4411;DHT22;2218;51.408;7.208;2023-03-14T16:33:53;20.30;30.20
4411;DHT22;2218;51.408;7.208;2023-03-14T16:36:20;20.30;30.40
4411;DHT22;2218;51.408;7.208;2023-03-14T16:38:48;20.30;30.50
4411;DHT22;2218;51.408;7.208;2023-03-14T16:41:18;20.30;30.70